Time;durP1;ratioP1;P1;durP2;ratioP2;P2;SDS_P1;SDS_P2;PMS_P1;PMS_P2;Temp;Humidity;BMP_temperature;BMP_pressure;BME280_temperature;BME280_humidity;BME280_pressure;Samples;Min_cycle;Max_cycle;Signal;HPM_P1;HPM_P2
2021/10/31 00:02:21;;;;;;;59.80;40.53;;;7.60;72.70;;;6.79;57.86;94758.34;5056729;28;20704;-81
2021/10/31 00:04:49;;;;;;;63.30;41.15;;;7.50;72.80;;;6.77;57.82;94762.13;5073205;28;20282;-81
2021/10/31 00:07:16;;;;;;;56.70;38.90;;;7.50;72.80;;;6.76;58.09;94770.91;5073062;28;20273;-81
2021/10/31 00:09:44;;;;;;;58.33;38.55;;;7.50;72.80;;;6.73;58.01;94767.66;5090091;28;20260;-81
2021/10/31 00:12:12;;;;;;;60.17;39.63;;;7.50;72.70;;;6.73;57.86;94767.66;5085923;28;20239;-81
2021/10/31 00:14:39;;;;;;;60.65;40.72;;;7.50;72.90;;;6.71;58.06;94764.44;5093333;28;20201;-81
2021/10/31 00:17:06;;;;;;;59.17;39.80;;;7.50;72.80;;;6.72;58.16;94765.22;5059732;28;20221;-81
2021/10/31 00:19:34;;;;;;;60.83;41.00;;;7.50;73.00;;;6.71;57.92;94761.00;5070603;28;20208;-80
2021/10/31 00:22:02;;;;;;;59.00;39.78;;;7.50;73.00;;;6.72;58.33;94766.03;5039444;28;20314;-80
2021/10/31 00:24:29;;;;;;;57.83;40.05;;;7.50;73.10;;;6.71;58.16;94754.00;5039757;28;20269;-81
2021/10/31 00:26:56;;;;;;;59.72;41.15;;;7.40;73.00;;;6.73;58.21;94756.44;5072897;28;20226;-81
2021/10/31 00:29:24;;;;;;;58.72;40.35;;;7.50;73.10;;;6.72;58.00;94760.00;5055559;28;20276;-81
2021/10/31 00:31:51;;;;;;;58.45;40.25;;;7.50;73.10;;;6.68;58.21;94758.75;5059027;28;20227;-81
2021/10/31 00:34:18;;;;;;;64.35;42.88;;;7.40;73.00;;;6.69;58.36;94761.19;5076051;28;20672;-81
2021/10/31 00:36:45;;;;;;;62.63;42.17;;;7.50;73.20;;;6.72;58.35;94763.41;5092733;28;20214;-81
2021/10/31 00:39:12;;;;;;;61.00;41.80;;;7.40;73.20;;;6.73;58.26;94765.06;5081326;28;20203;-81
2021/10/31 00:41:40;;;;;;;60.35;40.00;;;7.40;73.30;;;6.73;58.62;94767.66;5057939;28;20215;-81
2021/10/31 00:44:07;;;;;;;56.58;38.78;;;7.40;73.20;;;6.72;58.02;94767.84;5075806;28;20309;-81
2021/10/31 00:46:34;;;;;;;64.97;40.90;;;7.40;73.20;;;6.71;58.33;94771.41;5075185;28;20248;-81
2021/10/31 00:49:02;;;;;;;68.18;43.17;;;7.40;73.20;;;6.71;58.54;94771.41;5092183;28;20198;-81
2021/10/31 00:51:30;;;;;;;62.50;42.22;;;7.50;73.40;;;6.66;58.72;94763.31;5075862;28;20354;-80
2021/10/31 00:54:00;;;;;;;62.35;41.42;;;7.40;73.40;;;6.70;58.45;94772.41;5056744;28;20257;-81
2021/10/31 00:56:28;;;;;;;58.58;39.72;;;7.40;73.50;;;6.70;58.30;94768.00;5055709;28;20788;-81
2021/10/31 00:58:56;;;;;;;57.00;39.05;;;7.40;73.40;;;6.68;58.72;94762.16;5055451;28;20650;-81
2021/10/31 01:01:24;;;;;;;57.63;40.20;;;7.40;73.40;;;6.67;58.58;94762.34;5065201;28;20265;-81
2021/10/31 01:03:52;;;;;;;56.78;39.28;;;7.40;73.40;;;6.65;58.54;94759.91;5092531;28;20256;-81
2021/10/31 01:06:49;;;;;;;58.28;39.42;;;7.40;73.20;;;6.62;58.34;94762.03;5091833;28;20215;-81
2021/10/31 01:09:39;;;;;;;56.33;38.88;;;7.40;73.80;;;6.58;58.33;94764.19;5075224;28;20191;-80
2021/10/31 01:12:49;;;;;;;59.90;39.13;;;7.40;74.00;;;6.55;58.35;94764.50;5079619;28;20257;-81
2021/10/31 01:15:26;;;;;;;61.17;40.75;;;7.30;74.00;;;6.51;58.61;94766.63;5072111;28;20191;-81
2021/10/31 01:18:08;;;;;;;57.58;39.03;;;7.40;74.00;;;6.50;58.64;94764.22;5071684;28;20211;-81
2021/10/31 01:21:05;;;;;;;54.47;37.00;;;7.30;74.00;;;6.47;58.33;94770.56;5084469;28;20202;-81
2021/10/31 01:23:52;;;;;;;58.30;39.58;;;7.30;74.00;;;6.44;58.66;94768.28;5091430;28;20202;-81
2021/10/31 01:26:47;;;;;;;56.00;38.28;;;7.30;74.00;;;6.40;58.41;94773.03;5075011;28;20285;-81
2021/10/31 01:29:32;;;;;;;55.22;37.47;;;7.20;73.90;;;6.37;58.39;94777.75;5075064;28;20618;-81
2021/10/31 01:32:33;;;;;;;55.25;37.10;;;7.20;73.90;;;6.33;58.76;94768.66;5086823;28;20273;-81
2021/10/31 01:35:22;;;;;;;56.90;37.72;;;7.20;73.90;;;6.29;58.43;94773.41;5087191;28;20197;-81
2021/10/31 01:38:33;;;;;;;52.83;37.00;;;7.10;73.80;;;6.25;58.30;94764.31;5074988;28;20267;-80
2021/10/31 01:41:18;;;;;;;55.60;36.65;;;7.10;73.80;;;6.21;58.59;94778.63;5071384;28;20237;-81
2021/10/31 01:44:05;;;;;;;59.45;38.58;;;7.10;73.80;;;6.19;58.76;94778.81;5056357;28;20202;-81
2021/10/31 01:46:39;;;;;;;57.28;39.92;;;7.00;73.80;;;6.18;58.83;94781.59;5074904;28;20233;-81
2021/10/31 01:49:24;;;;;;;57.05;38.67;;;7.00;73.80;;;6.15;58.66;94787.94;5091588;28;20320;-81
2021/10/31 01:51:57;;;;;;;56.83;37.78;;;7.00;73.80;;;6.15;59.04;94784.50;5074487;28;20612;-81
2021/10/31 01:54:47;;;;;;;55.17;38.35;;;7.00;73.80;;;6.11;58.75;94781.44;5072673;28;20234;-81
2021/10/31 01:57:21;;;;;;;57.28;38.67;;;7.00;73.80;;;6.12;58.64;94784.88;5071234;28;20207;-81
2021/10/31 01:59:59;;;;;;;58.92;39.67;;;6.90;73.70;;;6.12;58.71;94780.47;5071539;28;20198;-81
2021/10/31 02:02:29;;;;;;;59.05;39.47;;;6.90;73.70;;;6.14;58.79;94781.13;5054532;28;20616;-81
2021/10/31 02:05:00;;;;;;;56.58;37.35;;;6.90;73.70;;;6.13;59.11;94773.44;5085793;28;20223;-81
2021/10/31 02:07:29;;;;;;;58.58;39.78;;;6.90;73.70;;;6.16;59.05;94775.72;5054739;28;20230;-81
2021/10/31 02:09:58;;;;;;;58.42;39.10;;;6.90;73.80;;;6.11;59.07;94763.22;5070918;28;20200;-81
2021/10/31 02:12:27;;;;;;;56.90;38.53;;;6.90;73.70;;;6.18;58.87;94766.75;5079008;28;20230;-81
2021/10/31 02:14:54;;;;;;;56.08;37.60;;;6.90;73.70;;;6.17;58.83;94766.94;5074565;28;20230;-81
2021/10/31 02:17:22;;;;;;;56.15;37.38;;;6.90;73.70;;;6.17;59.10;94769.53;5074592;28;20222;-81
2021/10/31 02:19:52;;;;;;;62.67;39.70;;;6.90;73.70;;;6.19;58.97;94781.41;5058304;28;20202;-81
2021/10/31 02:22:27;;;;;;;54.53;38.65;;;6.90;73.70;;;6.16;58.76;94780.94;5058671;28;20313;-81
2021/10/31 02:24:55;;;;;;;55.83;37.85;;;6.90;73.70;;;6.15;58.92;94774.09;5075063;28;20190;-80
2021/10/31 02:27:25;;;;;;;53.88;37.30;;;6.90;73.70;;;6.11;58.87;94778.81;5091998;28;20218;-80
2021/10/31 02:29:56;;;;;;;57.55;38.30;;;6.90;73.70;;;6.08;59.01;94773.97;5092653;28;20188;-80
2021/10/31 02:32:27;;;;;;;58.13;39.88;;;6.90;73.70;;;6.05;59.00;94782.09;5059801;28;20261;-80
2021/10/31 02:34:56;;;;;;;57.38;38.05;;;6.80;73.60;;;6.00;58.76;94774.00;5072861;28;20206;-79
2021/10/31 02:37:25;;;;;;;56.60;39.05;;;6.90;73.80;;;5.99;59.33;94769.75;5056632;28;20218;-80
2021/10/31 02:39:55;;;;;;;57.70;39.47;;;6.80;73.60;;;5.97;59.06;94772.50;5056361;28;20191;-80
2021/10/31 02:42:23;;;;;;;62.35;39.50;;;6.80;73.70;;;5.94;59.06;94765.00;5056153;28;20767;-79
2021/10/31 02:44:50;;;;;;;56.53;38.50;;;6.80;73.60;;;5.92;59.05;94770.38;5074305;28;20640;-80
2021/10/31 02:47:46;;;;;;;54.42;37.38;;;6.80;73.60;;;5.89;59.10;94775.91;5076293;28;20819;-81
2021/10/31 02:50:35;;;;;;;61.70;39.70;;;6.70;74.30;;;5.87;59.10;94777.06;5074030;28;20203;-81
2021/10/31 02:53:24;;;;;;;59.70;39.78;;;6.70;73.70;;;5.82;59.15;94774.94;5073550;28;20254;-81
2021/10/31 02:56:16;;;;;;;56.55;37.15;;;6.70;74.40;;;5.79;59.09;94780.50;5069890;28;20195;-80
2021/10/31 02:59:00;;;;;;;57.65;38.63;;;6.70;73.60;;;5.75;59.35;94779.22;5072106;28;20278;-81
2021/10/31 03:01:29;;;;;;;58.70;37.97;;;6.60;75.10;;;5.74;59.10;94782.78;5037704;28;20214;-81
2021/10/31 03:03:57;;;;;;;55.25;37.90;;;6.60;73.50;;;5.71;59.22;94783.94;5056083;28;20571;-81
2021/10/31 03:06:25;;;;;;;57.90;38.40;;;6.60;73.50;;;5.67;58.87;94779.22;5040902;28;20606;-81
2021/10/31 03:08:52;;;;;;;59.95;39.80;;;6.60;73.50;;;5.71;59.45;94793.53;5074351;28;20539;-81
2021/10/31 03:11:20;;;;;;;59.03;39.60;;;6.60;73.50;;;5.65;59.30;94778.56;5073202;28;20234;-81
2021/10/31 03:13:47;;;;;;;58.95;39.47;;;6.50;73.40;;;5.69;59.21;94790.25;5073706;28;20209;-81
2021/10/31 03:16:14;;;;;;;63.60;40.97;;;6.50;73.50;;;5.68;59.44;94779.06;5073829;28;20223;-81
2021/10/31 03:18:42;;;;;;;57.15;39.92;;;6.50;73.60;;;5.70;59.06;94789.28;5062087;28;20244;-81
2021/10/31 03:21:09;;;;;;;60.58;39.70;;;6.50;73.80;;;5.70;59.56;94784.91;5060876;28;20225;-81
2021/10/31 03:23:38;;;;;;;63.47;40.22;;;6.50;73.80;;;5.72;59.01;94792.53;5094271;28;20203;-81
2021/10/31 03:26:05;;;;;;;63.75;41.05;;;6.60;74.10;;;5.70;59.69;94784.91;5064047;28;20557;-82
2021/10/31 03:28:33;;;;;;;59.95;39.85;;;6.50;74.00;;;5.73;59.79;94794.19;5077028;28;20659;-80
2021/10/31 03:31:01;;;;;;;61.22;41.65;;;6.50;74.00;;;5.71;59.51;94786.53;5099347;28;20194;-80
2021/10/31 03:33:29;;;;;;;63.33;41.63;;;6.50;74.20;;;5.77;59.88;94792.84;5103128;28;20218;-80
2021/10/31 03:35:57;;;;;;;60.28;41.17;;;6.50;74.20;;;5.75;59.55;94787.81;5103483;28;20769;-81
2021/10/31 03:38:25;;;;;;;59.55;40.58;;;6.50;74.20;;;5.83;59.49;94799.22;5063895;28;20223;-80
2021/10/31 03:40:53;;;;;;;61.47;40.30;;;6.50;74.30;;;5.83;59.64;94797.41;5068744;28;20201;-80
2021/10/31 03:43:21;;;;;;;63.28;42.22;;;6.50;74.20;;;5.82;59.70;94795.78;5052091;28;20187;-80
2021/10/31 03:45:51;;;;;;;61.70;41.42;;;6.60;74.30;;;5.87;59.67;94793.50;5068195;28;20268;-80
2021/10/31 03:48:18;;;;;;;67.50;42.28;;;6.60;74.30;;;5.88;59.71;94796.91;5075168;28;20199;-80
2021/10/31 03:50:45;;;;;;;61.25;40.88;;;6.60;74.30;;;5.89;59.80;94795.94;5071464;28;20223;-81
2021/10/31 03:53:12;;;;;;;61.13;41.40;;;6.60;74.40;;;5.89;59.52;94795.94;5055959;28;20751;-81
2021/10/31 03:55:39;;;;;;;62.95;42.25;;;6.60;74.40;;;5.94;59.82;94798.84;5072138;28;20572;-81
2021/10/31 03:58:07;;;;;;;60.90;42.78;;;6.60;74.40;;;5.95;59.82;94797.88;5058741;28;20308;-81
2021/10/31 04:00:34;;;;;;;58.00;39.83;;;6.60;74.50;;;5.97;60.13;94805.50;5082166;28;20205;-81
2021/10/31 04:03:02;;;;;;;60.75;40.63;;;6.70;74.60;;;5.98;59.89;94800.16;5074510;28;20245;-82
2021/10/31 04:05:29;;;;;;;60.85;41.17;;;6.60;74.50;;;5.99;59.75;94801.00;5071076;28;20272;-80
2021/10/31 04:07:57;;;;;;;64.18;42.92;;;6.70;74.60;;;6.01;59.82;94799.84;5054501;28;20242;-81
2021/10/31 04:10:24;;;;;;;61.08;41.50;;;6.70;74.60;;;6.03;60.11;94807.47;5061668;28;20293;-81
2021/10/31 04:12:51;;;;;;;64.68;42.15;;;6.70;74.60;;;6.04;59.96;94806.50;5074229;28;20226;-81
2021/10/31 04:15:20;;;;;;;64.20;41.83;;;6.70;74.60;;;6.05;59.96;94800.31;5074700;28;20187;-80
2021/10/31 04:17:47;;;;;;;62.13;42.63;;;6.70;74.70;;;6.05;60.17;94793.34;5060170;28;20215;-81
2021/10/31 04:20:15;;;;;;;65.07;41.60;;;6.70;74.60;;;6.06;60.02;94805.38;5072471;28;20195;-81
2021/10/31 04:22:45;;;;;;;59.33;40.15;;;6.70;75.50;;;6.08;60.21;94798.22;5056197;28;20231;-81
2021/10/31 04:25:14;;;;;;;64.82;42.70;;;6.80;74.80;;;6.10;60.08;94808.44;5059145;28;20198;-81
2021/10/31 04:27:42;;;;;;;65.13;41.92;;;6.80;74.70;;;6.11;59.98;94807.47;5093230;28;20256;-81
2021/10/31 04:30:12;;;;;;;64.75;41.90;;;6.80;74.80;;;6.13;60.22;94802.09;5076117;28;20557;-81
2021/10/31 04:32:40;;;;;;;63.40;42.10;;;6.80;74.80;;;6.16;60.20;94806.97;5092916;28;20226;-81
2021/10/31 04:35:08;;;;;;;70.00;43.97;;;6.80;74.90;;;6.20;60.35;94810.88;5076041;28;20194;-81
2021/10/31 04:37:38;;;;;;;69.55;43.78;;;6.80;75.00;;;6.22;60.42;94812.31;5059233;28;20620;-82
2021/10/31 04:40:10;;;;;;;64.00;42.17;;;6.80;74.90;;;6.25;60.33;94813.81;5076566;28;20232;-82
2021/10/31 04:42:39;;;;;;;68.47;43.63;;;6.90;75.00;;;6.21;60.12;94807.28;5091908;28;20710;-82
2021/10/31 04:45:08;;;;;;;66.07;42.85;;;6.90;75.00;;;6.28;60.23;94810.03;5075771;28;20289;-81
2021/10/31 04:47:35;;;;;;;65.07;43.13;;;6.90;75.00;;;6.30;60.35;94806.28;5075631;28;20267;-82
2021/10/31 04:50:02;;;;;;;64.53;42.78;;;7.00;75.00;;;6.33;60.51;94813.75;5071874;28;20547;-80
2021/10/31 04:52:42;;;;;;;64.95;43.47;;;7.00;75.00;;;6.35;60.34;94804.00;5057276;28;20231;-81
2021/10/31 04:55:12;;;;;;;68.03;45.97;;;7.00;75.00;;;6.32;60.37;94799.09;5074117;28;20252;-81
2021/10/31 04:57:39;;;;;;;71.00;46.33;;;7.00;75.00;;;6.38;60.32;94802.84;5092355;28;20210;-82
2021/10/31 05:00:08;;;;;;;71.65;46.50;;;7.00;75.00;;;6.39;60.86;94805.25;5055375;28;20207;-82
2021/10/31 05:02:35;;;;;;;67.40;45.60;;;7.10;75.10;;;6.37;60.49;94802.03;5071986;28;20203;-81
2021/10/31 05:05:04;;;;;;;70.90;45.42;;;7.10;75.10;;;6.45;60.75;94800.38;5072514;28;20245;-81
2021/10/31 05:07:31;;;;;;;70.25;44.20;;;7.10;75.20;;;6.48;60.50;94800.03;5071763;28;20264;-82
2021/10/31 05:09:59;;;;;;;73.43;45.97;;;7.10;75.10;;;6.51;60.19;94797.09;5054797;28;20644;-81
2021/10/31 05:12:26;;;;;;;67.95;44.53;;;7.10;75.10;;;6.52;60.46;94802.13;5055126;28;20306;-81
2021/10/31 05:14:54;;;;;;;68.20;44.45;;;7.10;75.10;;;6.56;60.55;94805.22;5071617;28;20195;-81
2021/10/31 05:17:21;;;;;;;69.15;45.15;;;7.20;75.20;;;6.59;60.67;94804.06;5055210;28;20211;-81
2021/10/31 05:19:48;;;;;;;65.80;44.15;;;7.10;75.20;;;6.55;60.48;94786.19;5038664;28;20268;-81
2021/10/31 05:22:15;;;;;;;70.72;45.83;;;7.20;75.30;;;6.65;60.47;94806.00;5055158;28;20762;-81
2021/10/31 05:24:42;;;;;;;73.07;46.17;;;7.20;75.30;;;6.68;60.49;94805.66;5055134;28;20203;-82
2021/10/31 05:27:09;;;;;;;73.60;47.35;;;7.30;75.40;;;6.69;60.81;94802.88;5071402;28;20302;-82
2021/10/31 05:29:36;;;;;;;73.72;47.53;;;7.30;75.30;;;6.75;60.52;94808.38;5088071;28;20250;-82
2021/10/31 05:32:04;;;;;;;71.60;45.60;;;7.30;75.30;;;6.77;60.41;94803.81;5075149;28;20222;-82
2021/10/31 05:34:31;;;;;;;69.18;45.97;;;7.30;75.40;;;6.79;60.77;94796.66;5058671;28;20202;-82
2021/10/31 05:36:58;;;;;;;73.50;47.85;;;7.40;75.50;;;6.84;60.72;94795.13;5054405;28;20226;-81
2021/10/31 05:39:25;;;;;;;70.85;46.78;;;7.40;75.40;;;6.85;60.67;94804.59;5072816;28;20236;-81
2021/10/31 05:41:52;;;;;;;72.93;48.00;;;7.40;75.40;;;6.90;60.66;94806.69;5091854;28;20629;-81
2021/10/31 05:44:19;;;;;;;79.53;47.72;;;7.50;75.50;;;6.86;60.64;94801.00;5074747;28;20593;-81
2021/10/31 05:46:46;;;;;;;73.90;47.17;;;7.50;75.50;;;6.90;60.76;94811.91;5058332;28;20242;-81
2021/10/31 05:49:14;;;;;;;76.72;48.75;;;7.50;75.50;;;7.00;60.60;94817.69;5073744;28;20186;-81
2021/10/31 05:51:41;;;;;;;77.18;50.30;;;7.50;75.50;;;6.96;61.03;94795.56;5074589;28;20210;-82
2021/10/31 05:54:09;;;;;;;75.82;49.40;;;7.60;75.60;;;7.00;61.00;94791.63;5074461;28;20218;-82
2021/10/31 05:56:37;;;;;;;77.95;48.03;;;7.60;75.50;;;7.03;60.62;94804.31;5058255;28;20215;-82
2021/10/31 05:59:04;;;;;;;75.70;49.63;;;7.60;75.50;;;7.08;60.69;94806.44;5070969;28;20199;-81
2021/10/31 06:01:32;;;;;;;74.43;47.97;;;7.70;75.60;;;7.05;61.00;94794.53;5054683;28;20207;-81
2021/10/31 06:04:02;;;;;;;72.13;47.33;;;7.70;75.60;;;7.13;60.68;94804.09;5070911;28;20192;-81
2021/10/31 06:06:29;;;;;;;79.07;48.92;;;7.70;75.60;;;7.17;60.95;94815.00;5037891;28;20669;-81
2021/10/31 06:08:56;;;;;;;74.82;49.25;;;7.70;75.50;;;7.19;60.88;94815.66;5059008;28;20192;-81
2021/10/31 06:11:27;;;;;;;73.93;49.25;;;7.70;75.60;;;7.22;60.69;94812.69;5080718;28;20751;-82
2021/10/31 06:13:56;;;;;;;74.97;48.17;;;7.70;75.60;;;7.26;60.84;94821.78;5071000;28;20316;-82
2021/10/31 06:16:26;;;;;;;73.55;47.90;;;7.80;75.70;;;7.28;60.91;94819.81;5054567;28;20218;-81
2021/10/31 06:18:53;;;;;;;77.40;47.97;;;7.80;75.80;;;7.33;60.97;94819.31;5072771;28;20287;-81
2021/10/31 06:21:20;;;;;;;72.65;47.88;;;7.80;75.60;;;7.35;60.65;94814.72;5074220;28;20267;-82
2021/10/31 06:23:48;;;;;;;75.90;48.90;;;7.80;75.60;;;7.36;60.65;94822.38;5091467;28;20203;-82
2021/10/31 06:26:15;;;;;;;75.00;47.95;;;7.90;75.70;;;7.42;60.92;94830.47;5074452;28;20253;-81
2021/10/31 06:28:42;;;;;;;79.60;50.33;;;7.90;75.70;;;7.43;60.98;94822.47;5069538;28;20199;-82
2021/10/31 06:31:09;;;;;;;78.80;50.40;;;7.90;75.70;;;7.47;60.62;94830.75;5068053;28;20248;-81
2021/10/31 06:33:37;;;;;;;76.78;48.95;;;8.00;75.70;;;7.50;60.72;94828.63;5054306;28;20230;-81
2021/10/31 06:36:04;;;;;;;78.43;50.25;;;8.00;75.70;;;7.55;61.24;94829.91;5039392;28;20233;-81
2021/10/31 06:38:31;;;;;;;85.05;53.03;;;8.00;75.70;;;7.56;60.68;94840.16;5074248;28;20670;-81
2021/10/31 06:40:59;;;;;;;88.80;54.67;;;8.10;75.80;;;7.58;61.13;94840.00;5074526;28;20648;-82
2021/10/31 06:43:27;;;;;;;95.65;57.72;;;8.10;75.80;;;7.62;61.29;94842.09;5074565;28;20664;-82
2021/10/31 06:45:54;;;;;;;85.90;52.95;;;8.10;75.80;;;7.63;61.31;94833.28;5073972;28;20198;-81
2021/10/31 06:48:21;;;;;;;92.78;55.75;;;8.20;75.90;;;7.65;61.73;94840.91;5073985;28;20294;-81
2021/10/31 06:50:50;;;;;;;102.20;60.35;;;8.20;75.90;;;7.67;61.23;94847.59;5090955;28;20604;-82
2021/10/31 06:53:19;;;;;;;97.45;56.42;;;8.20;76.00;;;7.75;61.27;94851.13;5074170;28;20230;-82
2021/10/31 06:55:47;;;;;;;83.30;51.42;;;8.20;75.90;;;7.77;61.38;94839.50;5053806;28;20192;-81
2021/10/31 06:58:14;;;;;;;88.60;54.25;;;8.30;76.00;;;7.82;61.40;94845.03;5053981;28;20199;-82
2021/10/31 07:00:41;;;;;;;88.13;53.17;;;8.30;76.00;;;7.85;61.51;94854.31;5070865;28;20188;-82
2021/10/31 07:03:09;;;;;;;84.28;52.33;;;8.30;76.90;;;7.90;61.24;94857.19;5054043;28;20226;-81
2021/10/31 07:05:36;;;;;;;85.47;52.10;;;8.40;76.10;;;7.94;61.27;94847.22;5084381;28;20198;-80
2021/10/31 07:08:03;;;;;;;79.03;49.47;;;8.40;76.10;;;7.94;61.77;94848.00;5076797;28;20233;-81
2021/10/31 07:10:30;;;;;;;94.18;54.28;;;8.40;76.10;;;7.99;61.25;94856.13;5077489;28;20244;-82
2021/10/31 07:12:57;;;;;;;92.15;53.92;;;8.50;76.10;;;8.02;61.25;94850.56;5060822;28;20779;-82
2021/10/31 07:15:24;;;;;;;106.28;54.53;;;8.50;76.10;;;8.02;61.44;94839.31;5085127;28;20223;-82
2021/10/31 07:17:54;;;;;;;84.95;50.28;;;8.50;76.10;;;8.07;61.26;94846.59;5080201;28;20234;-82
2021/10/31 07:20:21;;;;;;;91.68;53.33;;;8.50;76.10;;;8.10;61.79;94849.66;5077082;28;20197;-80
2021/10/31 07:22:48;;;;;;;102.03;54.80;;;8.60;76.20;;;8.13;61.77;94851.09;5077225;28;20730;-81
2021/10/31 07:25:17;;;;;;;93.38;53.33;;;8.60;77.00;;;8.08;61.76;94843.81;5073894;28;20556;-81
2021/10/31 07:27:45;;;;;;;87.68;49.28;;;8.60;76.10;;;8.12;61.54;94839.84;5073836;28;20254;-82
2021/10/31 07:30:13;;;;;;;82.10;47.85;;;8.60;76.10;;;8.20;61.25;94846.78;5040690;28;20229;-81
2021/10/31 07:32:40;;;;;;;84.95;48.42;;;8.70;76.20;;;8.26;61.42;94851.31;5040244;28;20230;-80
2021/10/31 07:35:10;;;;;;;80.60;45.67;;;8.70;76.30;;;8.30;61.46;94849.16;5057253;28;20679;-81
2021/10/31 07:37:37;;;;;;;82.63;48.80;;;8.70;76.20;;;8.30;61.49;94847.34;5052397;28;20775;-81
2021/10/31 07:40:07;;;;;;;82.60;49.00;;;8.80;76.20;;;8.29;61.62;94845.72;5077082;28;20236;-82
2021/10/31 07:42:37;;;;;;;82.72;49.13;;;8.80;76.20;;;8.33;61.61;94844.38;5060771;28;20218;-82
2021/10/31 07:45:04;;;;;;;78.90;47.58;;;8.80;76.10;;;8.36;61.14;94847.63;5077505;28;20717;-82
2021/10/31 07:47:31;;;;;;;83.72;49.97;;;8.80;76.10;;;8.36;61.30;94843.22;5077081;28;20293;-82
2021/10/31 07:49:58;;;;;;;90.13;52.75;;;8.80;76.10;;;8.37;61.62;94844.81;5077109;28;20201;-82
2021/10/31 07:52:27;;;;;;;77.20;48.42;;;8.90;76.20;;;8.40;61.59;94838.44;5092629;28;20309;-80
2021/10/31 07:54:54;;;;;;;88.43;48.33;;;8.90;76.20;;;8.37;61.83;94836.97;5073327;28;20226;-82
2021/10/31 07:57:23;;;;;;;76.93;46.95;;;8.90;76.20;;;8.45;61.53;94849.97;5051028;28;20226;-82
2021/10/31 07:59:51;;;;;;;75.88;45.13;;;8.90;76.20;;;8.47;61.65;94849.81;5077048;28;20289;-82
2021/10/31 08:02:19;;;;;;;85.25;48.75;;;8.90;76.20;;;8.46;61.61;94848.19;5084676;28;20302;-82
2021/10/31 08:04:46;;;;;;;85.68;47.75;;;8.90;76.10;;;8.46;61.67;94846.41;5056952;28;20187;-82
2021/10/31 08:07:14;;;;;;;82.30;48.50;;;9.00;76.20;;;8.48;61.77;94841.00;5075749;28;20210;-82
2021/10/31 08:09:41;;;;;;;87.05;51.78;;;9.00;76.40;;;8.48;61.87;94833.97;5076632;28;20282;-81
2021/10/31 08:12:09;;;;;;;91.53;48.58;;;9.00;76.10;;;8.47;61.76;94834.97;5074860;28;20219;-82
2021/10/31 08:14:36;;;;;;;84.97;48.90;;;9.00;76.10;;;8.48;62.02;94833.97;5056065;28;20637;-82
2021/10/31 08:17:03;;;;;;;80.65;46.20;;;9.00;76.20;;;8.53;61.80;94833.41;5073097;28;20207;-82
2021/10/31 08:19:30;;;;;;;81.05;46.83;;;9.00;76.30;;;8.55;61.48;94836.66;5039924;28;20200;-82
2021/10/31 08:21:57;;;;;;;79.10;47.15;;;9.00;76.30;;;8.58;61.89;94835.50;5056239;28;20246;-83
2021/10/31 08:24:26;;;;;;;86.05;50.70;;;9.00;76.40;;;8.63;61.85;94833.16;5056465;28;20192;-82
2021/10/31 08:26:53;;;;;;;85.65;48.17;;;9.10;76.40;;;8.67;61.90;94828.34;5056469;28;20240;-82
2021/10/31 08:29:22;;;;;;;82.05;49.05;;;9.20;76.50;;;8.73;61.86;94835.50;5070453;28;20644;-82
2021/10/31 08:31:52;;;;;;;76.10;45.28;;;9.10;76.50;;;8.77;62.02;94828.91;5076198;28;20606;-82
2021/10/31 08:34:20;;;;;;;76.50;45.15;;;9.20;76.60;;;8.77;61.98;94816.63;5059170;28;20749;-81
2021/10/31 08:36:47;;;;;;;81.93;47.03;;;9.20;76.60;;;8.86;61.97;94819.13;5055991;28;20213;-82
2021/10/31 08:39:15;;;;;;;84.68;48.92;;;9.20;76.50;;;8.89;61.72;94819.59;5055978;28;20199;-83
2021/10/31 08:41:43;;;;;;;78.68;47.05;;;9.30;76.60;;;8.93;61.82;94818.22;5039390;28;20242;-83
2021/10/31 08:44:11;;;;;;;84.68;47.55;;;9.30;76.60;;;8.96;61.82;94815.25;5055924;28;20218;-82
2021/10/31 08:46:39;;;;;;;85.05;49.63;;;9.30;76.50;;;8.99;62.09;94814.06;5056205;28;20222;-82
2021/10/31 08:49:06;;;;;;;82.30;47.13;;;9.40;76.60;;;9.03;61.97;94809.28;5059348;28;20194;-83
2021/10/31 08:51:33;;;;;;;89.10;50.38;;;9.40;76.60;;;9.04;61.90;94810.91;5076193;28;20309;-83
2021/10/31 08:54:00;;;;;;;81.13;46.42;;;9.40;76.60;;;9.05;61.85;94805.47;5075564;28;20756;-83
2021/10/31 08:56:29;;;;;;;79.63;46.15;;;9.50;76.80;;;9.18;62.00;94811.84;5073748;28;20719;-82
2021/10/31 08:58:57;;;;;;;79.18;47.88;;;9.50;76.90;;;9.23;62.05;94810.31;5061065;28;20656;-82
2021/10/31 09:01:27;;;;;;;81.00;47.17;;;9.60;76.80;;;9.27;61.83;94803.69;5075307;28;20646;-82
2021/10/31 09:03:54;;;;;;;94.10;54.17;;;9.60;76.70;;;9.28;61.78;94797.47;5092306;28;20220;-83
2021/10/31 09:06:26;;;;;;;107.93;64.07;;;9.80;76.70;;;9.30;61.61;94792.03;5064502;28;20215;-83
2021/10/31 09:08:54;;;;;;;89.75;56.08;;;9.70;76.80;;;9.32;61.83;94799.72;5055523;28;20217;-82
2021/10/31 09:11:21;;;;;;;81.68;49.22;;;9.80;76.70;;;9.38;61.80;94788.50;5062550;28;20223;-82
2021/10/31 09:13:53;;;;;;;133.32;71.22;;;9.70;76.60;;;9.41;61.91;94782.88;5071780;28;20254;-82
2021/10/31 09:16:21;;;;;;;112.07;60.55;;;9.80;76.80;;;9.42;61.83;94772.25;5073007;28;20738;-82
2021/10/31 09:18:49;;;;;;;97.95;57.40;;;9.80;76.70;;;9.50;62.14;94778.34;5055258;28;20675;-82
2021/10/31 09:21:18;;;;;;;88.18;53.67;;;9.80;76.80;;;9.56;61.86;94775.78;5071824;28;20218;-83
2021/10/31 09:23:49;;;;;;;80.30;49.67;;;9.90;76.90;;;9.65;61.83;94778.25;5072542;28;20207;-82
2021/10/31 09:26:19;;;;;;;74.93;46.70;;;10.00;75.60;;;9.73;61.85;94772.88;5054777;28;20251;-83
2021/10/31 09:28:47;;;;;;;77.28;47.05;;;10.00;75.60;;;9.75;61.19;94771.69;5054990;28;20223;-83
2021/10/31 09:31:15;;;;;;;76.80;46.70;;;10.10;75.50;;;9.81;61.53;94775.34;5050407;28;20226;-83
2021/10/31 09:33:42;;;;;;;86.82;54.10;;;10.10;75.40;;;9.81;61.25;94766.69;5074429;28;20233;-83
2021/10/31 09:36:12;;;;;;;77.28;47.72;;;10.10;75.30;;;9.88;61.36;94773.59;5091799;28;20260;-81
2021/10/31 09:38:40;;;;;;;87.47;51.45;;;10.20;75.30;;;9.89;61.41;94767.34;5091494;28;20202;-82
2021/10/31 09:41:08;;;;;;;96.50;53.58;;;10.30;75.30;;;9.91;61.33;94767.97;5091548;28;20197;-82
2021/10/31 09:43:46;;;;;;;87.10;51.95;;;10.20;75.10;;;9.90;61.40;94753.25;5091797;28;20194;-82
2021/10/31 09:46:14;;;;;;;93.63;54.22;;;10.30;75.10;;;9.90;61.30;94757.69;5076169;28;20222;-82
2021/10/31 09:48:42;;;;;;;92.40;56.90;;;10.30;75.10;;;9.91;61.41;94754.88;5071622;28;20693;-82
2021/10/31 09:51:09;;;;;;;91.93;54.47;;;10.30;75.00;;;9.96;61.48;94759.56;5071224;28;20238;-83
2021/10/31 09:53:39;;;;;;;81.50;49.83;;;10.30;74.90;;;9.97;61.26;94762.97;5054372;28;20676;-80
2021/10/31 09:56:06;;;;;;;79.88;50.13;;;10.30;74.90;;;9.98;61.29;94760.16;5065887;28;20253;-79
2021/10/31 09:58:36;;;;;;;74.80;45.30;;;10.40;74.90;;;9.98;61.25;94751.50;5055041;28;20206;-80
2021/10/31 10:02:12;;;;;;;75.13;46.85;;;10.40;75.70;;;9.97;61.17;94748.03;5071081;28;20195;-83
2021/10/31 10:04:41;;;;;;;88.40;50.50;;;10.40;74.90;;;9.99;61.42;94745.25;5058027;28;20192;-83
2021/10/31 10:07:09;;;;;;;101.10;55.70;;;10.40;74.90;;;10.01;61.62;94746.69;5084529;28;20317;-82
2021/10/31 10:09:52;;;;;;;339.98;112.15;;;10.40;74.90;;;10.01;61.34;94735.38;5072819;28;20223;-82
2021/10/31 10:12:22;;;;;;;210.25;93.90;;;10.40;74.90;;;10.03;61.26;94736.81;5071219;28;20239;-82
2021/10/31 10:15:10;;;;;;;185.63;92.47;;;10.40;74.90;;;10.08;61.18;94730.97;5074101;28;20226;-83
2021/10/31 10:17:48;;;;;;;113.13;64.97;;;10.50;75.00;;;10.15;61.44;94731.84;5058064;28;20692;-82
2021/10/31 10:20:17;;;;;;;93.20;55.30;;;10.50;75.00;;;10.16;61.12;94715.13;5074438;28;20209;-83
2021/10/31 10:22:45;;;;;;;81.68;49.35;;;10.50;75.00;;;10.20;61.04;94716.31;5075086;28;20620;-83
2021/10/31 10:25:14;;;;;;;102.13;61.05;;;10.50;75.30;;;10.20;61.05;94711.09;5085671;28;20195;-82
2021/10/31 10:27:55;;;;;;;122.15;66.47;;;10.60;75.00;;;10.22;60.97;94708.28;5054278;28;20246;-83
2021/10/31 10:30:26;;;;;;;131.02;74.78;;;10.60;75.00;;;10.27;60.97;94708.50;5055033;28;20277;-82
2021/10/31 10:32:58;;;;;;;106.32;64.82;;;10.60;75.00;;;10.33;60.86;94699.88;5054630;28;20223;-82